sensor_id;sensor_type;location;lat;lon;timestamp;P1;durP1;ratioP1;P2;durP2;ratioP2
36715;SDS011;22699;51.034;3.730;2024-02-21T00:02:07;7.75;;;3.03;;
36715;SDS011;22699;51.034;3.730;2024-02-21T00:04:32;7.35;;;2.45;;
36715;SDS011;22699;51.034;3.730;2024-02-21T00:06:58;7.30;;;3.00;;
36715;SDS011;22699;51.034;3.730;2024-02-21T00:09:24;10.40;;;3.80;;
36715;SDS011;22699;51.034;3.730;2024-02-21T00:11:50;7.45;;;4.05;;
36715;SDS011;22699;51.034;3.730;2024-02-21T00:14:15;5.97;;;3.10;;
36715;SDS011;22699;51.034;3.730;2024-02-21T00:16:41;10.43;;;3.45;;
36715;SDS011;22699;51.034;3.730;2024-02-21T00:19:07;10.80;;;3.92;;
36715;SDS011;22699;51.034;3.730;2024-02-21T00:21:32;4.93;;;3.38;;
36715;SDS011;22699;51.034;3.730;2024-02-21T00:23:58;8.20;;;4.30;;
36715;SDS011;22699;51.034;3.730;2024-02-21T00:26:24;8.32;;;4.05;;
36715;SDS011;22699;51.034;3.730;2024-02-21T00:28:50;14.43;;;5.45;;
36715;SDS011;22699;51.034;3.730;2024-02-21T00:31:16;7.15;;;3.90;;
36715;SDS011;22699;51.034;3.730;2024-02-21T00:33:42;12.40;;;4.85;;
36715;SDS011;22699;51.034;3.730;2024-02-21T00:36:07;8.20;;;4.50;;
36715;SDS011;22699;51.034;3.730;2024-02-21T00:38:33;10.50;;;6.18;;
36715;SDS011;22699;51.034;3.730;2024-02-21T00:40:59;11.95;;;5.07;;
36715;SDS011;22699;51.034;3.730;2024-02-21T00:43:24;15.02;;;6.70;;
36715;SDS011;22699;51.034;3.730;2024-02-21T00:45:50;16.48;;;6.88;;
36715;SDS011;22699;51.034;3.730;2024-02-21T00:48:16;14.70;;;6.63;;
36715;SDS011;22699;51.034;3.730;2024-02-21T00:50:41;15.13;;;6.13;;
36715;SDS011;22699;51.034;3.730;2024-02-21T00:53:07;14.43;;;6.63;;
36715;SDS011;22699;51.034;3.730;2024-02-21T00:55:32;10.88;;;6.32;;
36715;SDS011;22699;51.034;3.730;2024-02-21T00:57:59;19.95;;;7.22;;
36715;SDS011;22699;51.034;3.730;2024-02-21T01:00:24;18.50;;;7.35;;
36715;SDS011;22699;51.034;3.730;2024-02-21T01:02:50;15.20;;;7.40;;
36715;SDS011;22699;51.034;3.730;2024-02-21T01:05:15;17.73;;;7.95;;
36715;SDS011;22699;51.034;3.730;2024-02-21T01:07:41;14.02;;;8.15;;
36715;SDS011;22699;51.034;3.730;2024-02-21T01:10:07;19.98;;;8.27;;
36715;SDS011;22699;51.034;3.730;2024-02-21T01:12:33;15.95;;;7.55;;
36715;SDS011;22699;51.034;3.730;2024-02-21T01:14:58;21.60;;;9.00;;
36715;SDS011;22699;51.034;3.730;2024-02-21T01:17:24;19.35;;;9.15;;
36715;SDS011;22699;51.034;3.730;2024-02-21T01:19:50;18.60;;;8.18;;
36715;SDS011;22699;51.034;3.730;2024-02-21T01:22:15;17.00;;;7.93;;
36715;SDS011;22699;51.034;3.730;2024-02-21T01:24:41;18.13;;;7.70;;
36715;SDS011;22699;51.034;3.730;2024-02-21T01:27:07;16.13;;;7.75;;
36715;SDS011;22699;51.034;3.730;2024-02-21T01:29:34;16.25;;;7.53;;
36715;SDS011;22699;51.034;3.730;2024-02-21T01:31:59;16.98;;;7.60;;
36715;SDS011;22699;51.034;3.730;2024-02-21T01:34:25;20.80;;;7.85;;
36715;SDS011;22699;51.034;3.730;2024-02-21T01:36:51;17.02;;;6.90;;
36715;SDS011;22699;51.034;3.730;2024-02-21T01:39:17;15.48;;;7.28;;
36715;SDS011;22699;51.034;3.730;2024-02-21T01:41:42;14.57;;;7.35;;
36715;SDS011;22699;51.034;3.730;2024-02-21T01:44:08;18.30;;;7.10;;
36715;SDS011;22699;51.034;3.730;2024-02-21T01:46:33;18.92;;;7.45;;
36715;SDS011;22699;51.034;3.730;2024-02-21T01:49:00;12.55;;;7.10;;
36715;SDS011;22699;51.034;3.730;2024-02-21T01:51:26;22.10;;;8.07;;
36715;SDS011;22699;51.034;3.730;2024-02-21T01:53:52;13.50;;;7.25;;
36715;SDS011;22699;51.034;3.730;2024-02-21T01:56:20;20.30;;;7.75;;
36715;SDS011;22699;51.034;3.730;2024-02-21T01:58:46;19.75;;;7.40;;
36715;SDS011;22699;51.034;3.730;2024-02-21T02:01:13;16.70;;;8.00;;
36715;SDS011;22699;51.034;3.730;2024-02-21T02:03:39;19.95;;;7.40;;
36715;SDS011;22699;51.034;3.730;2024-02-21T02:06:05;19.83;;;7.43;;
36715;SDS011;22699;51.034;3.730;2024-02-21T02:08:31;18.75;;;7.60;;
36715;SDS011;22699;51.034;3.730;2024-02-21T02:10:57;18.42;;;7.05;;
36715;SDS011;22699;51.034;3.730;2024-02-21T02:13:24;19.88;;;7.30;;
36715;SDS011;22699;51.034;3.730;2024-02-21T02:15:50;20.70;;;7.97;;
36715;SDS011;22699;51.034;3.730;2024-02-21T02:18:16;16.20;;;7.65;;
36715;SDS011;22699;51.034;3.730;2024-02-21T02:20:43;19.40;;;7.20;;
36715;SDS011;22699;51.034;3.730;2024-02-21T02:23:11;19.42;;;6.80;;
36715;SDS011;22699;51.034;3.730;2024-02-21T02:25:56;13.68;;;6.63;;
36715;SDS011;22699;51.034;3.730;2024-02-21T02:28:22;22.33;;;7.63;;
36715;SDS011;22699;51.034;3.730;2024-02-21T02:30:48;21.15;;;8.15;;
36715;SDS011;22699;51.034;3.730;2024-02-21T02:33:14;15.90;;;7.68;;
36715;SDS011;22699;51.034;3.730;2024-02-21T02:35:40;18.13;;;7.30;;
36715;SDS011;22699;51.034;3.730;2024-02-21T02:38:05;22.33;;;8.38;;
36715;SDS011;22699;51.034;3.730;2024-02-21T02:40:33;22.90;;;8.45;;
36715;SDS011;22699;51.034;3.730;2024-02-21T02:42:59;22.50;;;9.07;;
36715;SDS011;22699;51.034;3.730;2024-02-21T02:45:25;21.70;;;8.68;;
36715;SDS011;22699;51.034;3.730;2024-02-21T02:47:52;24.15;;;8.90;;
36715;SDS011;22699;51.034;3.730;2024-02-21T02:50:19;22.63;;;9.05;;
36715;SDS011;22699;51.034;3.730;2024-02-21T02:52:45;21.20;;;8.00;;
36715;SDS011;22699;51.034;3.730;2024-02-21T02:55:10;22.42;;;7.88;;
36715;SDS011;22699;51.034;3.730;2024-02-21T02:57:36;19.60;;;7.78;;
36715;SDS011;22699;51.034;3.730;2024-02-21T03:00:02;23.65;;;8.75;;
36715;SDS011;22699;51.034;3.730;2024-02-21T03:02:28;19.60;;;8.45;;
36715;SDS011;22699;51.034;3.730;2024-02-21T03:04:55;21.98;;;9.15;;
36715;SDS011;22699;51.034;3.730;2024-02-21T03:07:20;19.45;;;8.25;;
36715;SDS011;22699;51.034;3.730;2024-02-21T03:09:46;25.10;;;8.40;;
36715;SDS011;22699;51.034;3.730;2024-02-21T03:12:12;22.83;;;9.07;;
36715;SDS011;22699;51.034;3.730;2024-02-21T03:14:37;20.08;;;8.25;;
36715;SDS011;22699;51.034;3.730;2024-02-21T03:17:03;20.65;;;8.52;;
36715;SDS011;22699;51.034;3.730;2024-02-21T03:19:31;24.80;;;9.18;;
36715;SDS011;22699;51.034;3.730;2024-02-21T03:21:56;19.45;;;8.80;;
36715;SDS011;22699;51.034;3.730;2024-02-21T03:24:22;14.93;;;7.53;;
36715;SDS011;22699;51.034;3.730;2024-02-21T03:26:48;25.38;;;9.05;;
36715;SDS011;22699;51.034;3.730;2024-02-21T03:29:14;16.83;;;7.78;;
36715;SDS011;22699;51.034;3.730;2024-02-21T03:31:42;20.77;;;8.32;;
36715;SDS011;22699;51.034;3.730;2024-02-21T03:34:10;19.88;;;9.30;;
36715;SDS011;22699;51.034;3.730;2024-02-21T03:36:36;18.92;;;8.00;;
36715;SDS011;22699;51.034;3.730;2024-02-21T03:39:03;20.70;;;8.50;;
36715;SDS011;22699;51.034;3.730;2024-02-21T03:41:29;20.33;;;7.90;;
36715;SDS011;22699;51.034;3.730;2024-02-21T03:43:54;19.00;;;8.40;;
36715;SDS011;22699;51.034;3.730;2024-02-21T03:46:20;21.95;;;9.00;;
36715;SDS011;22699;51.034;3.730;2024-02-21T03:48:46;23.80;;;10.43;;
36715;SDS011;22699;51.034;3.730;2024-02-21T03:51:11;24.25;;;9.50;;
36715;SDS011;22699;51.034;3.730;2024-02-21T03:53:37;20.98;;;9.25;;
36715;SDS011;22699;51.034;3.730;2024-02-21T03:56:03;23.55;;;10.13;;
36715;SDS011;22699;51.034;3.730;2024-02-21T03:58:32;20.50;;;8.93;;
36715;SDS011;22699;51.034;3.730;2024-02-21T04:01:01;19.08;;;8.95;;
36715;SDS011;22699;51.034;3.730;2024-02-21T04:03:28;25.20;;;10.60;;
36715;SDS011;22699;51.034;3.730;2024-02-21T04:05:53;22.88;;;10.68;;
36715;SDS011;22699;51.034;3.730;2024-02-21T04:08:19;24.13;;;8.70;;
36715;SDS011;22699;51.034;3.730;2024-02-21T04:10:44;24.45;;;9.60;;
36715;SDS011;22699;51.034;3.730;2024-02-21T04:13:10;21.33;;;9.75;;
36715;SDS011;22699;51.034;3.730;2024-02-21T04:15:36;21.25;;;9.10;;
36715;SDS011;22699;51.034;3.730;2024-02-21T04:18:02;17.83;;;9.77;;
36715;SDS011;22699;51.034;3.730;2024-02-21T04:20:28;20.88;;;10.48;;
36715;SDS011;22699;51.034;3.730;2024-02-21T04:22:54;16.77;;;9.48;;
36715;SDS011;22699;51.034;3.730;2024-02-21T04:25:20;19.55;;;11.20;;
36715;SDS011;22699;51.034;3.730;2024-02-21T04:27:46;21.60;;;11.38;;
36715;SDS011;22699;51.034;3.730;2024-02-21T04:30:11;21.00;;;10.65;;
36715;SDS011;22699;51.034;3.730;2024-02-21T04:32:38;21.10;;;10.23;;
36715;SDS011;22699;51.034;3.730;2024-02-21T04:35:04;24.55;;;10.05;;
36715;SDS011;22699;51.034;3.730;2024-02-21T04:37:30;24.05;;;10.15;;
36715;SDS011;22699;51.034;3.730;2024-02-21T04:39:57;28.05;;;10.98;;
36715;SDS011;22699;51.034;3.730;2024-02-21T04:42:22;25.30;;;10.18;;
36715;SDS011;22699;51.034;3.730;2024-02-21T04:44:48;22.10;;;10.70;;
36715;SDS011;22699;51.034;3.730;2024-02-21T04:47:13;24.80;;;11.02;;
36715;SDS011;22699;51.034;3.730;2024-02-21T04:49:39;22.48;;;10.05;;
36715;SDS011;22699;51.034;3.730;2024-02-21T04:52:05;25.05;;;11.10;;
36715;SDS011;22699;51.034;3.730;2024-02-21T04:54:30;21.60;;;9.93;;
36715;SDS011;22699;51.034;3.730;2024-02-21T04:56:56;20.27;;;9.68;;
36715;SDS011;22699;51.034;3.730;2024-02-21T04:59:21;25.85;;;11.38;;
36715;SDS011;22699;51.034;3.730;2024-02-21T05:01:47;18.50;;;10.43;;
36715;SDS011;22699;51.034;3.730;2024-02-21T05:04:12;24.60;;;10.73;;
36715;SDS011;22699;51.034;3.730;2024-02-21T05:06:39;18.65;;;9.45;;
36715;SDS011;22699;51.034;3.730;2024-02-21T05:09:06;21.13;;;10.13;;
36715;SDS011;22699;51.034;3.730;2024-02-21T05:11:34;23.48;;;10.20;;
36715;SDS011;22699;51.034;3.730;2024-02-21T05:14:00;18.65;;;10.63;;
36715;SDS011;22699;51.034;3.730;2024-02-21T05:16:26;17.48;;;10.75;;
36715;SDS011;22699;51.034;3.730;2024-02-21T05:18:52;19.73;;;10.55;;
36715;SDS011;22699;51.034;3.730;2024-02-21T05:21:18;15.07;;;9.82;;
36715;SDS011;22699;51.034;3.730;2024-02-21T05:23:44;19.65;;;9.82;;
36715;SDS011;22699;51.034;3.730;2024-02-21T05:26:09;20.27;;;10.07;;
36715;SDS011;22699;51.034;3.730;2024-02-21T05:28:35;16.75;;;8.65;;
36715;SDS011;22699;51.034;3.730;2024-02-21T05:31:01;15.45;;;9.50;;
36715;SDS011;22699;51.034;3.730;2024-02-21T05:33:28;15.90;;;9.20;;
36715;SDS011;22699;51.034;3.730;2024-02-21T05:35:54;16.45;;;9.50;;
36715;SDS011;22699;51.034;3.730;2024-02-21T05:38:19;20.33;;;10.60;;
36715;SDS011;22699;51.034;3.730;2024-02-21T05:40:45;16.88;;;8.77;;
36715;SDS011;22699;51.034;3.730;2024-02-21T05:43:10;18.30;;;9.98;;
36715;SDS011;22699;51.034;3.730;2024-02-21T05:45:36;16.67;;;9.32;;
36715;SDS011;22699;51.034;3.730;2024-02-21T05:48:02;23.45;;;9.05;;
36715;SDS011;22699;51.034;3.730;2024-02-21T05:50:31;16.80;;;9.70;;
36715;SDS011;22699;51.034;3.730;2024-02-21T05:52:57;19.00;;;9.70;;
36715;SDS011;22699;51.034;3.730;2024-02-21T05:55:23;20.00;;;10.45;;
36715;SDS011;22699;51.034;3.730;2024-02-21T05:57:49;18.70;;;10.40;;
36715;SDS011;22699;51.034;3.730;2024-02-21T06:00:18;23.05;;;10.23;;
36715;SDS011;22699;51.034;3.730;2024-02-21T06:02:43;18.67;;;10.35;;
36715;SDS011;22699;51.034;3.730;2024-02-21T06:05:09;15.60;;;9.70;;
36715;SDS011;22699;51.034;3.730;2024-02-21T06:07:34;23.73;;;10.32;;
36715;SDS011;22699;51.034;3.730;2024-02-21T06:10:01;21.38;;;11.32;;
36715;SDS011;22699;51.034;3.730;2024-02-21T06:12:27;17.90;;;10.90;;
36715;SDS011;22699;51.034;3.730;2024-02-21T06:14:53;18.35;;;11.27;;
36715;SDS011;22699;51.034;3.730;2024-02-21T06:17:19;19.45;;;9.90;;
36715;SDS011;22699;51.034;3.730;2024-02-21T06:19:44;17.63;;;11.45;;
36715;SDS011;22699;51.034;3.730;2024-02-21T06:22:11;24.92;;;11.63;;
36715;SDS011;22699;51.034;3.730;2024-02-21T06:24:38;20.35;;;11.50;;
36715;SDS011;22699;51.034;3.730;2024-02-21T06:27:04;22.80;;;12.32;;
36715;SDS011;22699;51.034;3.730;2024-02-21T06:29:31;20.15;;;12.02;;
36715;SDS011;22699;51.034;3.730;2024-02-21T06:31:59;25.27;;;13.48;;
36715;SDS011;22699;51.034;3.730;2024-02-21T06:34:28;19.02;;;12.18;;
36715;SDS011;22699;51.034;3.730;2024-02-21T06:36:54;29.77;;;13.15;;
36715;SDS011;22699;51.034;3.730;2024-02-21T06:39:26;21.90;;;12.48;;
36715;SDS011;22699;51.034;3.730;2024-02-21T06:41:53;22.55;;;12.85;;
36715;SDS011;22699;51.034;3.730;2024-02-21T06:44:19;19.17;;;12.90;;
36715;SDS011;22699;51.034;3.730;2024-02-21T06:46:46;21.13;;;12.43;;
36715;SDS011;22699;51.034;3.730;2024-02-21T06:49:11;18.48;;;11.90;;
36715;SDS011;22699;51.034;3.730;2024-02-21T06:51:41;21.63;;;13.25;;
36715;SDS011;22699;51.034;3.730;2024-02-21T06:54:10;20.27;;;12.07;;
36715;SDS011;22699;51.034;3.730;2024-02-21T06:56:36;19.58;;;12.00;;
36715;SDS011;22699;51.034;3.730;2024-02-21T06:59:02;19.85;;;11.82;;
36715;SDS011;22699;51.034;3.730;2024-02-21T07:01:28;20.58;;;12.20;;
36715;SDS011;22699;51.034;3.730;2024-02-21T07:03:57;15.50;;;10.45;;
36715;SDS011;22699;51.034;3.730;2024-02-21T07:06:23;24.92;;;11.23;;
36715;SDS011;22699;51.034;3.730;2024-02-21T07:08:51;17.88;;;10.75;;
36715;SDS011;22699;51.034;3.730;2024-02-21T07:11:17;21.60;;;10.35;;
36715;SDS011;22699;51.034;3.730;2024-02-21T07:13:42;21.65;;;10.55;;
36715;SDS011;22699;51.034;3.730;2024-02-21T07:16:08;15.50;;;9.70;;
36715;SDS011;22699;51.034;3.730;2024-02-21T07:18:34;20.77;;;10.10;;
36715;SDS011;22699;51.034;3.730;2024-02-21T07:21:00;20.23;;;9.93;;
36715;SDS011;22699;51.034;3.730;2024-02-21T07:23:28;16.95;;;9.95;;
36715;SDS011;22699;51.034;3.730;2024-02-21T07:25:54;19.13;;;10.57;;
36715;SDS011;22699;51.034;3.730;2024-02-21T07:28:21;24.05;;;11.15;;
36715;SDS011;22699;51.034;3.730;2024-02-21T07:30:47;17.08;;;10.40;;
36715;SDS011;22699;51.034;3.730;2024-02-21T07:33:13;16.02;;;10.18;;
36715;SDS011;22699;51.034;3.730;2024-02-21T07:35:39;17.05;;;9.93;;
36715;SDS011;22699;51.034;3.730;2024-02-21T07:38:06;13.50;;;9.75;;
36715;SDS011;22699;51.034;3.730;2024-02-21T07:43:03;17.38;;;11.05;;
36715;SDS011;22699;51.034;3.730;2024-02-21T07:45:28;15.63;;;10.85;;
36715;SDS011;22699;51.034;3.730;2024-02-21T07:47:54;17.98;;;11.15;;
36715;SDS011;22699;51.034;3.730;2024-02-21T07:50:19;17.67;;;11.95;;
36715;SDS011;22699;51.034;3.730;2024-02-21T07:52:45;17.20;;;12.15;;
36715;SDS011;22699;51.034;3.730;2024-02-21T07:55:10;15.15;;;11.85;;
36715;SDS011;22699;51.034;3.730;2024-02-21T07:57:36;17.42;;;11.75;;
36715;SDS011;22699;51.034;3.730;2024-02-21T08:00:02;24.65;;;12.68;;
36715;SDS011;22699;51.034;3.730;2024-02-21T08:02:29;16.30;;;11.55;;
36715;SDS011;22699;51.034;3.730;2024-02-21T08:04:55;15.18;;;11.20;;
36715;SDS011;22699;51.034;3.730;2024-02-21T08:07:20;20.60;;;11.07;;
36715;SDS011;22699;51.034;3.730;2024-02-21T08:09:46;16.95;;;10.88;;
36715;SDS011;22699;51.034;3.730;2024-02-21T08:12:11;17.13;;;12.25;;
36715;SDS011;22699;51.034;3.730;2024-02-21T08:14:37;21.92;;;11.88;;
36715;SDS011;22699;51.034;3.730;2024-02-21T08:17:03;16.23;;;11.63;;
36715;SDS011;22699;51.034;3.730;2024-02-21T08:19:29;16.58;;;11.65;;
36715;SDS011;22699;51.034;3.730;2024-02-21T08:21:54;19.00;;;13.10;;
36715;SDS011;22699;51.034;3.730;2024-02-21T08:24:20;21.00;;;10.55;;
36715;SDS011;22699;51.034;3.730;2024-02-21T08:26:48;18.75;;;11.63;;
36715;SDS011;22699;51.034;3.730;2024-02-21T08:29:15;15.55;;;10.23;;
36715;SDS011;22699;51.034;3.730;2024-02-21T08:31:40;15.07;;;10.95;;
36715;SDS011;22699;51.034;3.730;2024-02-21T08:34:06;18.80;;;11.40;;
36715;SDS011;22699;51.034;3.730;2024-02-21T08:36:35;19.70;;;11.82;;
36715;SDS011;22699;51.034;3.730;2024-02-21T08:39:02;14.75;;;9.98;;
36715;SDS011;22699;51.034;3.730;2024-02-21T08:41:32;19.60;;;10.95;;
36715;SDS011;22699;51.034;3.730;2024-02-21T08:43:59;15.17;;;10.50;;
36715;SDS011;22699;51.034;3.730;2024-02-21T08:46:25;14.90;;;11.07;;
36715;SDS011;22699;51.034;3.730;2024-02-21T08:48:51;15.55;;;10.25;;
36715;SDS011;22699;51.034;3.730;2024-02-21T08:51:17;16.27;;;10.98;;
36715;SDS011;22699;51.034;3.730;2024-02-21T08:53:44;22.58;;;11.43;;
36715;SDS011;22699;51.034;3.730;2024-02-21T08:56:10;22.02;;;11.52;;
36715;SDS011;22699;51.034;3.730;2024-02-21T08:58:36;22.58;;;12.20;;
36715;SDS011;22699;51.034;3.730;2024-02-21T09:01:02;18.67;;;10.90;;
36715;SDS011;22699;51.034;3.730;2024-02-21T09:03:33;17.98;;;10.15;;
36715;SDS011;22699;51.034;3.730;2024-02-21T09:06:02;17.30;;;10.63;;
36715;SDS011;22699;51.034;3.730;2024-02-21T09:08:28;16.23;;;10.33;;
36715;SDS011;22699;51.034;3.730;2024-02-21T09:10:54;21.77;;;9.70;;
36715;SDS011;22699;51.034;3.730;2024-02-21T09:13:19;18.45;;;9.25;;
36715;SDS011;22699;51.034;3.730;2024-02-21T09:15:45;19.00;;;9.82;;
36715;SDS011;22699;51.034;3.730;2024-02-21T09:18:11;16.48;;;10.02;;
36715;SDS011;22699;51.034;3.730;2024-02-21T09:20:37;12.30;;;8.68;;
36715;SDS011;22699;51.034;3.730;2024-02-21T09:23:03;16.25;;;8.45;;
36715;SDS011;22699;51.034;3.730;2024-02-21T09:25:28;19.10;;;9.48;;
36715;SDS011;22699;51.034;3.730;2024-02-21T09:27:54;17.08;;;9.90;;
36715;SDS011;22699;51.034;3.730;2024-02-21T09:30:20;15.02;;;8.65;;
36715;SDS011;22699;51.034;3.730;2024-02-21T09:32:46;18.90;;;8.73;;
36715;SDS011;22699;51.034;3.730;2024-02-21T09:35:12;13.50;;;9.27;;
36715;SDS011;22699;51.034;3.730;2024-02-21T09:37:38;15.20;;;8.48;;
36715;SDS011;22699;51.034;3.730;2024-02-21T09:40:04;15.20;;;8.10;;
36715;SDS011;22699;51.034;3.730;2024-02-21T09:42:37;14.55;;;8.65;;
36715;SDS011;22699;51.034;3.730;2024-02-21T09:45:08;16.65;;;9.00;;
36715;SDS011;22699;51.034;3.730;2024-02-21T09:47:50;12.23;;;8.43;;
36715;SDS011;22699;51.034;3.730;2024-02-21T09:50:36;16.40;;;9.07;;
36715;SDS011;22699;51.034;3.730;2024-02-21T09:53:05;10.80;;;8.50;;
36715;SDS011;22699;51.034;3.730;2024-02-21T09:55:33;16.67;;;10.38;;
36715;SDS011;22699;51.034;3.730;2024-02-21T09:57:59;16.20;;;9.77;;
36715;SDS011;22699;51.034;3.730;2024-02-21T10:00:27;15.60;;;8.65;;
36715;SDS011;22699;51.034;3.730;2024-02-21T10:02:53;15.20;;;9.63;;
36715;SDS011;22699;51.034;3.730;2024-02-21T10:05:19;15.02;;;8.38;;
36715;SDS011;22699;51.034;3.730;2024-02-21T10:07:46;16.20;;;8.75;;
36715;SDS011;22699;51.034;3.730;2024-02-21T10:10:15;14.35;;;7.80;;
36715;SDS011;22699;51.034;3.730;2024-02-21T10:12:50;13.38;;;7.45;;
36715;SDS011;22699;51.034;3.730;2024-02-21T10:15:23;12.20;;;7.40;;
36715;SDS011;22699;51.034;3.730;2024-02-21T10:18:01;11.15;;;6.53;;
36715;SDS011;22699;51.034;3.730;2024-02-21T10:20:28;13.18;;;7.22;;
36715;SDS011;22699;51.034;3.730;2024-02-21T10:23:02;10.05;;;6.15;;
36715;SDS011;22699;51.034;3.730;2024-02-21T10:25:35;20.30;;;6.95;;
36715;SDS011;22699;51.034;3.730;2024-02-21T10:28:06;11.77;;;6.78;;
36715;SDS011;22699;51.034;3.730;2024-02-21T10:30:32;15.88;;;6.20;;
36715;SDS011;22699;51.034;3.730;2024-02-21T10:32:58;11.48;;;6.68;;
36715;SDS011;22699;51.034;3.730;2024-02-21T10:35:27;11.75;;;6.35;;
36715;SDS011;22699;51.034;3.730;2024-02-21T10:37:54;9.60;;;5.97;;
36715;SDS011;22699;51.034;3.730;2024-02-21T10:40:27;14.73;;;6.80;;
36715;SDS011;22699;51.034;3.730;2024-02-21T10:43:01;13.30;;;7.22;;
36715;SDS011;22699;51.034;3.730;2024-02-21T10:48:10;10.93;;;6.30;;
36715;SDS011;22699;51.034;3.730;2024-02-21T10:50:53;12.80;;;6.38;;
36715;SDS011;22699;51.034;3.730;2024-02-21T10:53:40;10.10;;;6.30;;
36715;SDS011;22699;51.034;3.730;2024-02-21T10:56:32;9.85;;;6.50;;
36715;SDS011;22699;51.034;3.730;2024-02-21T10:59:05;8.95;;;6.40;;
36715;SDS011;22699;51.034;3.730;2024-02-21T11:01:31;12.75;;;7.60;;
36715;SDS011;22699;51.034;3.730;2024-02-21T11:03:59;9.90;;;6.55;;
36715;SDS011;22699;51.034;3.730;2024-02-21T11:06:37;15.37;;;7.43;;
36715;SDS011;22699;51.034;3.730;2024-02-21T11:09:06;16.13;;;7.13;;
36715;SDS011;22699;51.034;3.730;2024-02-21T11:11:37;9.70;;;7.80;;
36715;SDS011;22699;51.034;3.730;2024-02-21T11:14:20;14.02;;;9.00;;
36715;SDS011;22699;51.034;3.730;2024-02-21T11:16:46;15.95;;;9.27;;
36715;SDS011;22699;51.034;3.730;2024-02-21T11:19:19;11.75;;;8.93;;
36715;SDS011;22699;51.034;3.730;2024-02-21T11:21:47;13.77;;;8.82;;
36715;SDS011;22699;51.034;3.730;2024-02-21T11:24:25;13.80;;;8.40;;
36715;SDS011;22699;51.034;3.730;2024-02-21T11:26:52;10.88;;;8.30;;
36715;SDS011;22699;51.034;3.730;2024-02-21T11:29:24;13.13;;;8.68;;
36715;SDS011;22699;51.034;3.730;2024-02-21T11:31:51;11.50;;;8.55;;
36715;SDS011;22699;51.034;3.730;2024-02-21T11:34:17;13.07;;;8.50;;
36715;SDS011;22699;51.034;3.730;2024-02-21T11:36:51;13.55;;;8.30;;
36715;SDS011;22699;51.034;3.730;2024-02-21T11:39:25;11.95;;;8.45;;
36715;SDS011;22699;51.034;3.730;2024-02-21T11:42:03;9.68;;;7.95;;
36715;SDS011;22699;51.034;3.730;2024-02-21T11:44:31;12.27;;;8.25;;
36715;SDS011;22699;51.034;3.730;2024-02-21T11:46:59;12.90;;;9.45;;
36715;SDS011;22699;51.034;3.730;2024-02-21T11:49:25;11.63;;;8.20;;
36715;SDS011;22699;51.034;3.730;2024-02-21T11:51:59;13.43;;;8.75;;
36715;SDS011;22699;51.034;3.730;2024-02-21T11:54:26;13.73;;;9.02;;
36715;SDS011;22699;51.034;3.730;2024-02-21T11:56:52;12.07;;;9.90;;
36715;SDS011;22699;51.034;3.730;2024-02-21T11:59:18;10.13;;;7.78;;
36715;SDS011;22699;51.034;3.730;2024-02-21T12:01:44;14.52;;;9.52;;
36715;SDS011;22699;51.034;3.730;2024-02-21T12:04:10;11.38;;;8.48;;
36715;SDS011;22699;51.034;3.730;2024-02-21T12:06:35;15.23;;;8.10;;
36715;SDS011;22699;51.034;3.730;2024-02-21T12:09:01;14.20;;;7.65;;
36715;SDS011;22699;51.034;3.730;2024-02-21T12:11:27;11.88;;;7.63;;
36715;SDS011;22699;51.034;3.730;2024-02-21T12:14:00;13.55;;;8.38;;
36715;SDS011;22699;51.034;3.730;2024-02-21T12:16:27;9.48;;;7.03;;
36715;SDS011;22699;51.034;3.730;2024-02-21T12:18:54;11.30;;;7.22;;
36715;SDS011;22699;51.034;3.730;2024-02-21T12:21:25;10.85;;;6.38;;
36715;SDS011;22699;51.034;3.730;2024-02-21T12:24:11;9.35;;;6.63;;
36715;SDS011;22699;51.034;3.730;2024-02-21T12:26:42;10.27;;;6.07;;
36715;SDS011;22699;51.034;3.730;2024-02-21T12:29:08;11.32;;;6.38;;
36715;SDS011;22699;51.034;3.730;2024-02-21T12:31:37;7.35;;;5.43;;
36715;SDS011;22699;51.034;3.730;2024-02-21T12:34:05;7.00;;;5.43;;
36715;SDS011;22699;51.034;3.730;2024-02-21T12:36:33;8.95;;;5.28;;
36715;SDS011;22699;51.034;3.730;2024-02-21T12:39:00;8.20;;;5.05;;
36715;SDS011;22699;51.034;3.730;2024-02-21T12:41:30;8.80;;;5.85;;
36715;SDS011;22699;51.034;3.730;2024-02-21T12:43:57;10.38;;;5.80;;
36715;SDS011;22699;51.034;3.730;2024-02-21T12:46:22;13.32;;;5.82;;
36715;SDS011;22699;51.034;3.730;2024-02-21T12:48:48;7.90;;;5.45;;
36715;SDS011;22699;51.034;3.730;2024-02-21T12:51:14;8.27;;;5.18;;
36715;SDS011;22699;51.034;3.730;2024-02-21T12:53:40;10.93;;;6.15;;
36715;SDS011;22699;51.034;3.730;2024-02-21T12:56:06;11.23;;;6.50;;
36715;SDS011;22699;51.034;3.730;2024-02-21T12:58:32;9.23;;;6.90;;
36715;SDS011;22699;51.034;3.730;2024-02-21T13:00:58;12.45;;;7.43;;
36715;SDS011;22699;51.034;3.730;2024-02-21T13:03:24;9.85;;;8.30;;
36715;SDS011;22699;51.034;3.730;2024-02-21T13:05:49;10.07;;;6.93;;
36715;SDS011;22699;51.034;3.730;2024-02-21T13:08:15;12.25;;;8.02;;
36715;SDS011;22699;51.034;3.730;2024-02-21T13:10:40;14.18;;;8.70;;
36715;SDS011;22699;51.034;3.730;2024-02-21T13:13:06;11.45;;;7.70;;
36715;SDS011;22699;51.034;3.730;2024-02-21T13:15:32;7.88;;;6.88;;
36715;SDS011;22699;51.034;3.730;2024-02-21T13:17:57;10.60;;;7.18;;
36715;SDS011;22699;51.034;3.730;2024-02-21T13:20:24;9.25;;;6.00;;
36715;SDS011;22699;51.034;3.730;2024-02-21T13:22:52;13.20;;;6.82;;
36715;SDS011;22699;51.034;3.730;2024-02-21T13:25:19;11.13;;;7.05;;
36715;SDS011;22699;51.034;3.730;2024-02-21T13:27:46;9.38;;;5.35;;
36715;SDS011;22699;51.034;3.730;2024-02-21T13:30:13;7.88;;;5.68;;
36715;SDS011;22699;51.034;3.730;2024-02-21T13:32:41;9.32;;;6.13;;
36715;SDS011;22699;51.034;3.730;2024-02-21T13:35:07;11.25;;;5.72;;
36715;SDS011;22699;51.034;3.730;2024-02-21T13:37:34;10.55;;;5.18;;
36715;SDS011;22699;51.034;3.730;2024-02-21T13:39:59;13.25;;;6.45;;
36715;SDS011;22699;51.034;3.730;2024-02-21T13:42:25;9.25;;;5.50;;
36715;SDS011;22699;51.034;3.730;2024-02-21T13:44:52;8.75;;;6.13;;
36715;SDS011;22699;51.034;3.730;2024-02-21T13:47:18;10.93;;;6.40;;
36715;SDS011;22699;51.034;3.730;2024-02-21T13:49:44;9.68;;;6.50;;
36715;SDS011;22699;51.034;3.730;2024-02-21T13:52:09;9.38;;;6.28;;
36715;SDS011;22699;51.034;3.730;2024-02-21T13:54:35;13.20;;;5.95;;
36715;SDS011;22699;51.034;3.730;2024-02-21T13:57:00;9.55;;;5.75;;
36715;SDS011;22699;51.034;3.730;2024-02-21T13:59:27;8.77;;;5.63;;
36715;SDS011;22699;51.034;3.730;2024-02-21T14:01:53;11.82;;;6.35;;
36715;SDS011;22699;51.034;3.730;2024-02-21T14:04:21;10.75;;;6.32;;
36715;SDS011;22699;51.034;3.730;2024-02-21T14:06:47;11.85;;;5.90;;
36715;SDS011;22699;51.034;3.730;2024-02-21T14:09:13;9.35;;;5.75;;
36715;SDS011;22699;51.034;3.730;2024-02-21T14:11:39;9.90;;;5.93;;
36715;SDS011;22699;51.034;3.730;2024-02-21T14:14:06;9.90;;;6.50;;
36715;SDS011;22699;51.034;3.730;2024-02-21T14:16:32;11.77;;;7.20;;
36715;SDS011;22699;51.034;3.730;2024-02-21T14:18:58;11.15;;;5.78;;
36715;SDS011;22699;51.034;3.730;2024-02-21T14:21:23;12.00;;;7.45;;
36715;SDS011;22699;51.034;3.730;2024-02-21T14:23:49;9.77;;;7.50;;
36715;SDS011;22699;51.034;3.730;2024-02-21T14:26:15;11.23;;;5.75;;
36715;SDS011;22699;51.034;3.730;2024-02-21T14:28:41;8.60;;;6.40;;
36715;SDS011;22699;51.034;3.730;2024-02-21T14:31:07;12.73;;;7.50;;
36715;SDS011;22699;51.034;3.730;2024-02-21T14:33:36;11.98;;;6.75;;
36715;SDS011;22699;51.034;3.730;2024-02-21T14:36:01;10.20;;;5.95;;
36715;SDS011;22699;51.034;3.730;2024-02-21T14:38:27;9.48;;;6.00;;